createdAt,value
2022-10-18T00:00:10.589Z,13.49
2022-10-18T00:02:40.171Z,13.44
2022-10-18T00:05:09.682Z,13.37
2022-10-18T00:07:40.005Z,13.45
2022-10-18T00:10:09.889Z,13.37
2022-10-18T00:12:39.391Z,13.36
2022-10-18T00:15:10.042Z,13.37
2022-10-18T00:17:40.153Z,13.33
2022-10-18T00:20:10.351Z,13.32
2022-10-18T00:22:41.931Z,13.34
2022-10-18T00:25:11.483Z,13.32
2022-10-18T00:27:40.501Z,13.31
2022-10-18T00:30:10.675Z,13.34
2022-10-18T00:32:40.623Z,13.31
2022-10-18T00:35:10.289Z,13.29
2022-10-18T00:37:40.621Z,13.28
2022-10-18T00:40:10.934Z,13.33
2022-10-18T00:42:39.866Z,13.32
2022-10-18T00:45:21.132Z,13.25
2022-10-18T00:47:54.407Z,13.24
2022-10-18T00:50:26.226Z,13.18
2022-10-18T00:52:59.837Z,13.21
2022-10-18T00:55:31.388Z,13.27
2022-10-18T00:58:01.047Z,13.23
2022-10-18T01:00:30.078Z,13.20
2022-10-18T01:03:00.238Z,13.23
2022-10-18T01:05:29.591Z,13.19
2022-10-18T01:08:21.227Z,13.19
2022-10-18T01:10:58.101Z,13.15
2022-10-18T01:13:40.190Z,13.13
2022-10-18T01:16:18.027Z,13.07
2022-10-18T01:18:54.550Z,13.14
2022-10-18T01:21:36.735Z,13.07
2022-10-18T01:24:30.662Z,13.10
2022-10-18T01:27:38.368Z,13.11
2022-10-18T01:30:46.114Z,13.08
2022-10-18T01:33:22.309Z,13.09
2022-10-18T01:35:57.708Z,13.12
2022-10-18T01:38:30.690Z,13.10
2022-10-18T01:41:01.338Z,13.07
2022-10-18T01:43:31.447Z,13.03
2022-10-18T01:46:03.622Z,12.99
2022-10-18T01:48:33.451Z,12.98
2022-10-18T01:51:02.397Z,12.99
2022-10-18T01:53:33.049Z,12.96
2022-10-18T01:56:35.072Z,12.94
2022-10-18T01:59:41.173Z,12.97
2022-10-18T02:02:22.174Z,12.95
2022-10-18T02:04:55.908Z,12.97
2022-10-18T02:07:33.573Z,12.91
2022-10-18T02:10:09.940Z,12.93
2022-10-18T02:12:42.639Z,12.88
2022-10-18T02:15:15.062Z,12.90
2022-10-18T02:17:47.115Z,12.98
2022-10-18T02:20:22.117Z,12.95
2022-10-18T02:22:54.260Z,12.94
2022-10-18T02:25:26.670Z,13.04
2022-10-18T02:27:57.179Z,12.96
2022-10-18T02:30:33.477Z,13.07
2022-10-18T02:33:12.783Z,13.05
2022-10-18T02:35:45.822Z,13.04
2022-10-18T02:38:17.125Z,13.02
2022-10-18T02:40:46.074Z,13.06
2022-10-18T02:43:15.919Z,13.03
2022-10-18T02:45:44.900Z,12.91
2022-10-18T02:48:15.243Z,12.91
2022-10-18T02:50:44.151Z,12.86
2022-10-18T02:53:13.129Z,12.83
2022-10-18T02:55:42.066Z,12.85
2022-10-18T02:58:11.076Z,12.81
2022-10-18T03:00:39.996Z,12.75
2022-10-18T03:03:08.955Z,12.82
2022-10-18T03:05:39.221Z,12.87
2022-10-18T03:08:08.313Z,12.83
2022-10-18T03:10:37.242Z,12.79
2022-10-18T03:13:06.172Z,12.80
2022-10-18T03:15:35.182Z,12.82
2022-10-18T03:18:04.145Z,12.71
2022-10-18T03:20:34.037Z,12.69
2022-10-18T03:23:04.356Z,12.65
2022-10-18T03:25:33.296Z,12.70
2022-10-18T03:28:02.324Z,12.70
2022-10-18T03:30:31.337Z,12.60
2022-10-18T03:33:00.659Z,12.64
2022-10-18T03:35:29.591Z,12.61
2022-10-18T03:37:58.613Z,12.60
2022-10-18T03:40:28.914Z,12.62
2022-10-18T03:42:57.888Z,12.59
2022-10-18T03:45:29.004Z,12.64
2022-10-18T03:48:00.362Z,12.72
2022-10-18T03:50:29.304Z,12.78
2022-10-18T03:52:58.303Z,12.77
2022-10-18T03:55:28.721Z,12.77
2022-10-18T03:57:57.695Z,12.88
2022-10-18T04:00:26.646Z,12.86
2022-10-18T04:02:56.138Z,12.85
2022-10-18T04:05:27.806Z,12.87
2022-10-18T04:07:56.761Z,12.83
2022-10-18T04:10:25.828Z,12.83
2022-10-18T04:12:56.300Z,12.81
2022-10-18T04:15:25.223Z,12.80
2022-10-18T04:17:54.219Z,12.80
2022-10-18T04:20:23.357Z,12.75
2022-10-18T04:22:52.490Z,12.75
2022-10-18T04:25:21.537Z,12.75
2022-10-18T04:27:50.554Z,12.74
2022-10-18T04:30:20.905Z,12.69
2022-10-18T04:32:49.821Z,12.66
2022-10-18T04:35:19.724Z,12.65
2022-10-18T04:37:48.718Z,12.66
2022-10-18T04:40:17.901Z,12.64
2022-10-18T04:42:46.848Z,12.65
2022-10-18T04:45:15.835Z,12.62
2022-10-18T04:47:46.138Z,12.61
2022-10-18T04:50:15.104Z,12.65
2022-10-18T04:52:44.011Z,12.67
2022-10-18T04:55:12.967Z,12.67
2022-10-18T04:57:41.896Z,12.69
2022-10-18T05:00:11.464Z,12.66
2022-10-18T05:02:40.540Z,12.70
2022-10-18T05:05:13.999Z,12.69
2022-10-18T05:07:43.349Z,12.70
2022-10-18T05:10:12.340Z,12.77
2022-10-18T05:12:41.280Z,12.74
2022-10-18T05:15:11.106Z,12.80
2022-10-18T05:17:40.095Z,12.79
2022-10-18T05:20:11.223Z,12.76
2022-10-18T05:22:40.277Z,12.79
2022-10-18T05:25:10.235Z,12.75
2022-10-18T05:27:39.213Z,12.80
2022-10-18T05:30:09.157Z,12.77
2022-10-18T05:32:38.119Z,12.77
2022-10-18T05:35:07.993Z,12.80
2022-10-18T05:37:38.259Z,12.79
2022-10-18T05:40:08.540Z,12.82
2022-10-18T05:42:37.496Z,12.79
2022-10-18T05:45:07.172Z,12.77
2022-10-18T05:50:10.703Z,12.71
2022-10-18T05:52:40.991Z,12.77
2022-10-18T05:55:10.298Z,12.76
2022-10-18T05:57:39.243Z,12.68
2022-10-18T06:00:09.432Z,12.58
2022-10-18T06:02:40.767Z,12.47
2022-10-18T06:05:09.998Z,12.45
2022-10-18T06:07:40.266Z,12.44
2022-10-18T06:10:10.166Z,12.45
2022-10-18T06:12:39.117Z,12.46
2022-10-18T06:15:08.929Z,12.43
2022-10-18T06:17:38.168Z,12.42
2022-10-18T06:20:08.693Z,12.48
2022-10-18T06:22:37.757Z,12.43
2022-10-18T06:25:08.875Z,12.37
2022-10-18T06:27:37.838Z,12.33
2022-10-18T06:30:07.968Z,12.36
2022-10-18T06:32:36.896Z,12.37
2022-10-18T06:35:06.795Z,12.41
2022-10-18T06:37:36.959Z,12.35
2022-10-18T06:40:08.747Z,12.37
2022-10-18T06:42:37.821Z,12.35
2022-10-18T06:45:08.884Z,12.38
2022-10-18T06:47:37.807Z,12.42
2022-10-18T06:50:07.567Z,12.43
2022-10-18T06:52:36.507Z,12.46
2022-10-18T06:55:09.078Z,12.45
2022-10-18T06:57:39.498Z,12.46
2022-10-18T07:00:09.774Z,12.49
2022-10-18T07:02:41.188Z,12.52
2022-10-18T07:05:11.159Z,12.61
2022-10-18T07:07:40.428Z,12.60
2022-10-18T07:10:12.996Z,12.56
2022-10-18T07:12:43.600Z,12.60
2022-10-18T07:15:12.728Z,12.60
2022-10-18T07:17:41.744Z,12.59
2022-10-18T07:20:11.440Z,12.70
2022-10-18T07:22:40.510Z,12.69
2022-10-18T07:25:09.977Z,12.64
2022-10-18T07:27:39.808Z,12.71
2022-10-18T07:30:11.923Z,12.73
2022-10-18T07:32:41.053Z,12.79
2022-10-18T07:37:44.387Z,12.73
2022-10-18T07:40:14.133Z,12.82
2022-10-18T07:42:43.461Z,12.81
2022-10-18T07:45:14.580Z,12.73
2022-10-18T07:47:43.507Z,12.68
2022-10-18T07:50:12.467Z,12.71
2022-10-18T07:52:41.398Z,12.68
2022-10-18T07:55:10.489Z,12.84
2022-10-18T07:57:39.460Z,12.74
2022-10-18T08:00:09.723Z,12.79
2022-10-18T08:02:41.860Z,12.70
2022-10-18T08:05:11.276Z,12.69
2022-10-18T08:07:40.204Z,12.71
2022-10-18T08:10:09.774Z,12.62
2022-10-18T08:12:38.751Z,12.69
2022-10-18T08:15:08.509Z,12.63
2022-10-18T08:17:37.805Z,12.74
2022-10-18T08:20:12.200Z,12.80
2022-10-18T08:22:41.507Z,12.71
2022-10-18T08:25:10.672Z,12.80
2022-10-18T08:27:39.620Z,12.85
2022-10-18T08:30:09.664Z,12.89
2022-10-18T08:32:38.617Z,12.90
2022-10-18T08:35:09.876Z,12.95
2022-10-18T08:37:40.058Z,12.85
2022-10-18T08:40:11.695Z,12.81
2022-10-18T08:42:58.421Z,12.86
2022-10-18T08:45:41.582Z,12.87
2022-10-18T08:48:22.722Z,12.84
2022-10-18T08:50:55.472Z,13.00
2022-10-18T08:53:29.865Z,13.02
2022-10-18T08:56:05.995Z,13.17
2022-10-18T08:58:35.155Z,13.13
2022-10-18T09:01:13.882Z,13.01
2022-10-18T09:04:09.322Z,12.98
2022-10-18T09:06:49.815Z,13.07
2022-10-18T09:09:29.414Z,13.11
2022-10-18T09:12:10.459Z,13.23
2022-10-18T09:15:02.117Z,13.31
2022-10-18T09:17:40.381Z,13.87
2022-10-18T09:20:21.779Z,14.57
2022-10-18T09:22:55.552Z,13.72
2022-10-18T09:25:27.089Z,13.30
2022-10-18T09:28:03.894Z,13.46
2022-10-18T09:30:46.481Z,13.84
2022-10-18T09:33:28.253Z,13.78
2022-10-18T09:36:00.298Z,13.48
2022-10-18T09:38:35.569Z,13.51
2022-10-18T09:41:11.543Z,14.16
2022-10-18T09:43:48.413Z,13.81
2022-10-18T09:46:20.860Z,13.49
2022-10-18T09:48:54.118Z,13.57
2022-10-18T09:51:27.370Z,14.02
2022-10-18T09:54:15.877Z,14.01
2022-10-18T09:56:50.109Z,13.65
2022-10-18T09:59:35.020Z,13.63
2022-10-18T10:02:04.183Z,13.60
2022-10-18T10:04:33.117Z,13.40
2022-10-18T10:07:03.240Z,13.41
2022-10-18T10:09:40.948Z,13.43
2022-10-18T10:12:28.473Z,13.34
2022-10-18T10:15:17.311Z,13.79
2022-10-18T10:17:46.875Z,14.14
2022-10-18T10:20:22.183Z,14.74
2022-10-18T10:22:52.820Z,15.38
2022-10-18T10:25:29.554Z,16.06
2022-10-18T10:28:03.800Z,16.54
2022-10-18T10:30:34.766Z,15.17
2022-10-18T10:33:04.320Z,14.49
2022-10-18T10:38:27.321Z,13.97
2022-10-18T10:40:58.216Z,13.69
2022-10-18T10:43:44.547Z,13.88
2022-10-18T10:46:16.012Z,14.74
2022-10-18T10:48:57.054Z,14.92
2022-10-18T10:51:36.416Z,15.82
2022-10-18T10:54:08.401Z,15.78
2022-10-18T10:56:52.013Z,15.61
2022-10-18T10:59:24.004Z,16.15
2022-10-18T11:02:20.727Z,15.36
2022-10-18T11:04:51.850Z,14.81
2022-10-18T11:07:25.653Z,14.78
2022-10-18T11:10:02.264Z,14.55
2022-10-18T11:12:35.556Z,14.53
2022-10-18T11:15:15.516Z,14.67
2022-10-18T11:17:48.307Z,14.22
2022-10-18T11:20:23.226Z,14.08
2022-10-18T11:23:01.118Z,15.07
2022-10-18T11:25:46.597Z,14.47
2022-10-18T11:28:28.920Z,15.44
2022-10-18T11:31:13.088Z,15.72
2022-10-18T11:34:10.183Z,14.75
2022-10-18T11:36:54.712Z,14.76
2022-10-18T11:39:43.721Z,15.02
2022-10-18T11:42:22.122Z,14.76
2022-10-18T11:45:07.100Z,15.54
2022-10-18T11:47:45.582Z,16.14
2022-10-18T11:50:26.548Z,16.68
2022-10-18T11:53:05.115Z,16.16
2022-10-18T11:55:43.427Z,17.25
2022-10-18T11:58:28.313Z,16.48
2022-10-18T12:01:07.329Z,16.96
2022-10-18T12:03:44.877Z,16.61
2022-10-18T12:06:18.742Z,16.98
2022-10-18T12:08:50.877Z,17.75
2022-10-18T12:11:24.737Z,17.52
2022-10-18T12:13:57.752Z,16.83
2022-10-18T12:16:50.124Z,16.78
2022-10-18T12:19:26.707Z,17.55
2022-10-18T12:22:14.776Z,17.07
2022-10-18T12:24:43.991Z,16.99
2022-10-18T12:27:16.571Z,17.44
2022-10-18T12:29:51.342Z,16.66
2022-10-18T12:32:27.890Z,17.02
2022-10-18T12:35:03.381Z,17.04
2022-10-18T12:38:03.749Z,17.60
2022-10-18T12:40:39.815Z,17.52
2022-10-18T12:43:18.976Z,17.75
2022-10-18T12:45:54.734Z,17.20
2022-10-18T12:48:34.732Z,17.36
2022-10-18T12:51:08.265Z,16.82
2022-10-18T12:53:37.384Z,16.72
2022-10-18T12:56:36.749Z,16.61
2022-10-18T12:59:44.621Z,16.72
2022-10-18T13:02:26.016Z,16.70
2022-10-18T13:05:00.658Z,15.95
2022-10-18T13:07:42.951Z,15.70
2022-10-18T13:10:42.401Z,15.34
2022-10-18T13:13:43.995Z,14.92
2022-10-18T13:16:28.785Z,15.93
2022-10-18T13:19:00.417Z,16.25
2022-10-18T13:21:43.239Z,16.90
2022-10-18T13:24:26.009Z,16.43
2022-10-18T13:27:24.461Z,16.76
2022-10-18T13:30:30.294Z,16.88
2022-10-18T13:33:10.304Z,17.36
2022-10-18T13:35:54.971Z,17.23
2022-10-18T13:38:47.201Z,17.16
2022-10-18T13:41:19.308Z,16.74
2022-10-18T13:44:11.656Z,16.49
2022-10-18T13:47:20.054Z,16.34
2022-10-18T13:50:30.805Z,15.19
2022-10-18T13:53:36.214Z,16.43
2022-10-18T13:56:41.033Z,15.69
2022-10-18T13:59:33.634Z,16.38
2022-10-18T14:02:42.796Z,16.79
2022-10-18T14:05:31.519Z,15.95
2022-10-18T14:08:08.172Z,15.92
2022-10-18T14:11:01.838Z,15.33
2022-10-18T14:13:43.582Z,15.19
2022-10-18T14:16:29.556Z,15.07
2022-10-18T14:19:09.264Z,14.84
2022-10-18T14:21:42.482Z,14.78
2022-10-18T14:24:20.089Z,14.76
2022-10-18T14:26:49.026Z,14.75
2022-10-18T14:29:21.019Z,14.69
2022-10-18T14:31:56.319Z,14.63
2022-10-18T14:34:26.335Z,14.44
2022-10-18T14:36:55.282Z,14.63
2022-10-18T14:39:28.917Z,14.62
2022-10-18T14:41:59.867Z,14.49
2022-10-18T14:44:32.272Z,14.61
2022-10-18T14:47:02.725Z,14.57
2022-10-18T14:49:32.283Z,14.51
2022-10-18T14:52:02.361Z,14.67
2022-10-18T14:54:33.968Z,14.69
2022-10-18T14:57:03.661Z,14.59
2022-10-18T14:59:40.561Z,14.54
2022-10-18T15:02:15.806Z,14.38
2022-10-18T15:04:46.500Z,14.36
2022-10-18T15:07:17.333Z,14.28
2022-10-18T15:09:47.881Z,14.27
2022-10-18T15:12:18.778Z,14.18
2022-10-18T15:14:50.853Z,14.18
2022-10-18T15:17:25.273Z,14.09
2022-10-18T15:20:00.479Z,14.05
2022-10-18T15:22:33.683Z,14.05
2022-10-18T15:25:16.058Z,14.01
2022-10-18T15:27:48.697Z,14.14
2022-10-18T15:30:24.880Z,13.98
2022-10-18T15:32:55.784Z,13.94
2022-10-18T15:35:28.421Z,14.00
2022-10-18T15:38:00.133Z,13.96
2022-10-18T15:40:38.413Z,13.95
2022-10-18T15:43:23.586Z,13.91
2022-10-18T15:45:57.603Z,13.84
2022-10-18T15:48:32.658Z,13.73
2022-10-18T15:51:04.636Z,13.68
2022-10-18T15:53:43.095Z,13.65
2022-10-18T15:56:29.178Z,13.65
2022-10-18T15:59:00.731Z,13.51
2022-10-18T16:01:36.740Z,13.55
2022-10-18T16:04:18.097Z,13.34
2022-10-18T16:06:47.251Z,13.27
2022-10-18T16:09:19.218Z,13.18
2022-10-18T16:11:54.298Z,13.06
2022-10-18T16:14:27.044Z,13.04
2022-10-18T16:17:03.088Z,13.13
2022-10-18T16:19:33.308Z,13.15
2022-10-18T16:22:06.589Z,13.17
2022-10-18T16:24:35.831Z,13.15
2022-10-18T16:27:04.864Z,13.10
2022-10-18T16:29:34.104Z,13.16
2022-10-18T16:32:04.425Z,13.11
2022-10-18T16:34:33.435Z,13.01
2022-10-18T16:37:02.326Z,13.22
2022-10-18T16:39:34.838Z,13.13
2022-10-18T16:42:03.844Z,13.08
2022-10-18T16:44:32.784Z,13.12
2022-10-18T16:47:03.336Z,13.14
2022-10-18T16:49:32.291Z,13.09
2022-10-18T16:52:01.290Z,13.01
2022-10-18T16:54:30.286Z,13.03
2022-10-18T16:56:59.232Z,13.06
2022-10-18T16:59:31.000Z,13.07
2022-10-18T17:02:01.495Z,13.09
2022-10-18T17:04:31.864Z,13.08
2022-10-18T17:07:00.864Z,13.07
2022-10-18T17:09:29.820Z,13.11
2022-10-18T17:11:58.726Z,13.05
2022-10-18T17:14:27.708Z,13.01
2022-10-18T17:16:57.495Z,13.05
2022-10-18T17:19:26.538Z,13.04
2022-10-18T17:22:01.562Z,13.06
2022-10-18T17:24:31.430Z,13.05
2022-10-18T17:27:00.408Z,13.07
2022-10-18T17:29:29.436Z,13.10
2022-10-18T17:31:58.470Z,13.10
2022-10-18T17:34:27.419Z,13.06
2022-10-18T17:36:57.798Z,13.07
2022-10-18T17:39:26.728Z,13.14
2022-10-18T17:41:55.843Z,13.19
2022-10-18T17:44:25.530Z,13.16
2022-10-18T17:46:55.017Z,13.10
2022-10-18T17:49:24.112Z,13.14
2022-10-18T17:51:53.059Z,13.15
2022-10-18T17:54:23.377Z,13.07
2022-10-18T17:56:53.805Z,13.03
2022-10-18T17:59:23.607Z,13.00
2022-10-18T18:01:53.820Z,12.94
2022-10-18T18:04:24.107Z,13.02
2022-10-18T18:06:53.180Z,12.93
2022-10-18T18:09:24.140Z,13.01
2022-10-18T18:11:53.712Z,13.00
2022-10-18T18:14:23.026Z,13.08
2022-10-18T18:16:52.582Z,13.14
2022-10-18T18:19:23.961Z,13.10
2022-10-18T18:21:55.067Z,13.03
2022-10-18T18:24:26.158Z,13.05
2022-10-18T18:26:55.869Z,12.98
2022-10-18T18:29:27.433Z,12.96
2022-10-18T18:31:56.992Z,12.94
2022-10-18T18:34:26.086Z,12.91
2022-10-18T18:36:55.815Z,12.81
2022-10-18T18:39:29.441Z,12.74
2022-10-18T18:41:58.363Z,12.73
2022-10-18T18:44:27.273Z,12.69
2022-10-18T18:46:58.116Z,12.70
2022-10-18T18:49:27.957Z,12.74
2022-10-18T18:51:56.903Z,12.70
2022-10-18T18:54:28.649Z,12.66
2022-10-18T18:56:57.865Z,12.75
2022-10-18T18:59:27.187Z,12.86
2022-10-18T19:01:56.204Z,12.81
2022-10-18T19:04:25.330Z,12.79
2022-10-18T19:06:54.255Z,12.78
2022-10-18T19:09:23.813Z,12.76
2022-10-18T19:11:56.248Z,12.68
2022-10-18T19:14:26.267Z,12.64
2022-10-18T19:16:57.488Z,12.66
2022-10-18T19:19:28.254Z,12.58
2022-10-18T19:21:58.886Z,12.53
2022-10-18T19:24:30.107Z,12.38
2022-10-18T19:27:02.059Z,12.41
2022-10-18T19:29:32.725Z,12.35
2022-10-18T19:32:04.272Z,12.27
2022-10-18T19:34:34.810Z,12.25
2022-10-18T19:37:04.985Z,12.24
2022-10-18T19:39:35.968Z,12.27
2022-10-18T19:42:08.922Z,12.33
2022-10-18T19:44:39.402Z,12.34
2022-10-18T19:47:11.134Z,12.31
2022-10-18T19:49:42.449Z,12.26
2022-10-18T19:52:12.339Z,12.32
2022-10-18T19:54:41.392Z,12.31
2022-10-18T19:57:11.722Z,12.35
2022-10-18T20:02:15.436Z,12.26
2022-10-18T20:04:44.410Z,12.27
2022-10-18T20:07:13.426Z,12.19
2022-10-18T20:09:42.424Z,12.18
2022-10-18T20:12:12.795Z,12.15
2022-10-18T20:14:42.014Z,12.07
2022-10-18T20:17:12.891Z,11.95
2022-10-18T20:19:41.904Z,11.84
2022-10-18T20:22:11.052Z,11.77
2022-10-18T20:24:40.035Z,11.64
2022-10-18T20:27:08.945Z,11.73
2022-10-18T20:29:39.265Z,11.71
2022-10-18T20:32:08.708Z,11.50
2022-10-18T20:34:37.682Z,11.36
2022-10-18T20:37:06.742Z,11.27
2022-10-18T20:39:35.950Z,11.19
2022-10-18T20:42:05.012Z,11.10
2022-10-18T20:44:34.609Z,11.04
2022-10-18T20:47:04.988Z,11.02
2022-10-18T20:49:35.397Z,10.95
2022-10-18T20:52:04.661Z,10.85
2022-10-18T20:54:34.066Z,10.72
2022-10-18T20:57:03.253Z,10.64
2022-10-18T20:59:32.412Z,10.61
2022-10-18T21:02:01.627Z,10.63
2022-10-18T21:04:32.010Z,10.65
2022-10-18T21:07:03.577Z,10.66
2022-10-18T21:09:32.632Z,10.64
2022-10-18T21:12:01.661Z,10.59
2022-10-18T21:14:30.948Z,10.54
2022-10-18T21:16:59.855Z,10.51
2022-10-18T21:19:29.866Z,10.59
2022-10-18T21:22:00.156Z,10.51
2022-10-18T21:24:29.960Z,10.51
2022-10-18T21:27:00.233Z,10.49
2022-10-18T21:29:30.859Z,10.55
2022-10-18T21:32:00.841Z,10.48
2022-10-18T21:34:29.799Z,10.64
2022-10-18T21:37:00.126Z,10.58
2022-10-18T21:39:29.955Z,10.55
2022-10-18T21:41:59.032Z,10.59
2022-10-18T21:44:28.164Z,10.60
2022-10-18T21:46:57.094Z,10.62
2022-10-18T21:49:28.586Z,10.66
2022-10-18T21:51:58.867Z,10.76
2022-10-18T21:54:27.919Z,10.87
2022-10-18T21:56:56.990Z,10.89
2022-10-18T21:59:25.969Z,10.98
2022-10-18T22:01:55.064Z,11.06
2022-10-18T22:04:25.520Z,11.07
2022-10-18T22:06:54.505Z,11.09
2022-10-18T22:09:24.813Z,11.08
2022-10-18T22:11:54.776Z,11.04
2022-10-18T22:14:24.423Z,10.92
2022-10-18T22:16:53.369Z,10.69
2022-10-18T22:19:22.316Z,10.63
2022-10-18T22:21:51.326Z,10.48
2022-10-18T22:24:20.753Z,10.48
2022-10-18T22:26:51.141Z,10.42
2022-10-18T22:29:21.728Z,10.39
2022-10-18T22:31:52.908Z,10.37
2022-10-18T22:34:23.476Z,10.38
2022-10-18T22:36:52.623Z,10.37
2022-10-18T22:39:22.146Z,10.31
2022-10-18T22:41:55.818Z,10.29
2022-10-18T22:44:25.294Z,10.24
2022-10-18T22:46:54.529Z,10.29
2022-10-18T22:49:23.520Z,10.28
2022-10-18T22:51:52.495Z,10.27
2022-10-18T22:54:21.520Z,10.20
2022-10-18T22:56:51.867Z,10.14
2022-10-18T22:59:20.940Z,10.03
2022-10-18T23:01:49.927Z,9.95
2022-10-18T23:04:18.864Z,9.94
2022-10-18T23:06:47.886Z,9.97
2022-10-18T23:09:16.821Z,9.86
2022-10-18T23:11:47.075Z,9.84
2022-10-18T23:14:17.630Z,9.81
2022-10-18T23:16:47.261Z,9.77
2022-10-18T23:19:17.041Z,9.69
2022-10-18T23:21:45.985Z,9.70
2022-10-18T23:24:14.952Z,9.73
2022-10-18T23:26:43.905Z,9.77
2022-10-18T23:29:13.754Z,9.80
2022-10-18T23:31:44.069Z,9.72
2022-10-18T23:34:13.117Z,9.75
2022-10-18T23:36:42.130Z,9.78
2022-10-18T23:39:12.035Z,9.78
2022-10-18T23:41:40.967Z,9.82
2022-10-18T23:44:11.419Z,9.85
2022-10-18T23:46:40.455Z,9.85
2022-10-18T23:49:11.595Z,9.89
2022-10-18T23:51:40.525Z,9.86
2022-10-18T23:54:09.454Z,9.92
2022-10-18T23:56:38.440Z,9.98
2022-10-18T23:59:07.440Z,9.98
